sensor_id;sensor_type;location;lat;lon;timestamp;pressure;altitude;pressure_sealevel;temperature;humidity
9325;BME280;4701;51.566;6.776;2024-01-06T06:06:27;-18182.97;;;4.86;100.00
9325;BME280;4701;51.566;6.776;2024-01-06T06:11:28;-18183.13;;;4.87;100.00
9325;BME280;4701;51.566;6.776;2024-01-06T06:16:30;-18182.53;;;4.85;100.00
9325;BME280;4701;51.566;6.776;2024-01-06T06:21:33;-18181.16;;;4.80;100.00
9325;BME280;4701;51.566;6.776;2024-01-06T06:26:34;-18181.31;;;4.81;100.00
9325;BME280;4701;51.566;6.776;2024-01-06T06:31:37;-18180.84;;;4.79;100.00
9325;BME280;4701;51.566;6.776;2024-01-06T06:36:40;-18180.53;;;4.78;100.00
9325;BME280;4701;51.566;6.776;2024-01-06T06:41:42;-18179.63;;;4.75;100.00
9325;BME280;4701;51.566;6.776;2024-01-06T06:46:43;-18177.97;;;4.70;100.00
9325;BME280;4701;51.566;6.776;2024-01-06T06:51:46;-18176.13;;;4.64;100.00
9325;BME280;4701;51.566;6.776;2024-01-06T06:56:48;-18173.84;;;4.56;100.00
9325;BME280;4701;51.566;6.776;2024-01-06T07:01:50;-18172.94;;;4.53;100.00
9325;BME280;4701;51.566;6.776;2024-01-06T07:06:53;-18170.78;;;4.46;100.00
9325;BME280;4701;51.566;6.776;2024-01-06T07:11:54;-18170.50;;;4.45;100.00
9325;BME280;4701;51.566;6.776;2024-01-06T07:16:56;-18169.41;;;4.41;100.00
9325;BME280;4701;51.566;6.776;2024-01-06T07:21:59;-18166.69;;;4.32;100.00
9325;BME280;4701;51.566;6.776;2024-01-06T07:27:01;-18166.38;;;4.31;100.00
9325;BME280;4701;51.566;6.776;2024-01-06T15:34:17;-18094.53;;;1.93;100.00
9325;BME280;4701;51.566;6.776;2024-01-06T15:39:41;-18096.81;;;2.00;100.00
9325;BME280;4701;51.566;6.776;2024-01-06T15:44:42;-18098.03;;;2.04;100.00
9325;BME280;4701;51.566;6.776;2024-01-06T15:49:44;-18098.34;;;2.05;100.00
9325;BME280;4701;51.566;6.776;2024-01-06T15:54:48;-18098.66;;;2.06;100.00
9325;BME280;4701;51.566;6.776;2024-01-06T15:59:50;-18098.50;;;2.06;100.00
9325;BME280;4701;51.566;6.776;2024-01-06T16:04:52;-18098.19;;;2.05;100.00
9325;BME280;4701;51.566;6.776;2024-01-06T16:09:55;-18098.66;;;2.06;100.00
9325;BME280;4701;51.566;6.776;2024-01-06T16:14:56;-18098.34;;;2.05;100.00
9325;BME280;4701;51.566;6.776;2024-01-06T16:19:58;-18097.44;;;2.02;100.00
9325;BME280;4701;51.566;6.776;2024-01-06T16:25:01;-18096.22;;;1.98;100.00
9325;BME280;4701;51.566;6.776;2024-01-06T16:30:03;-18096.38;;;1.99;100.00
9325;BME280;4701;51.566;6.776;2024-01-06T16:35:06;-18097.13;;;2.01;100.00
9325;BME280;4701;51.566;6.776;2024-01-06T16:40:10;-18096.97;;;2.01;100.00
9325;BME280;4701;51.566;6.776;2024-01-06T16:45:12;-18095.59;;;1.96;100.00
9325;BME280;4701;51.566;6.776;2024-01-06T16:50:14;-18095.75;;;1.97;100.00
9325;BME280;4701;51.566;6.776;2024-01-06T16:55:17;-18095.59;;;1.96;100.00
9325;BME280;4701;51.566;6.776;2024-01-06T17:00:19;-18095.16;;;1.95;100.00
9325;BME280;4701;51.566;6.776;2024-01-06T17:05:20;-18096.38;;;1.99;100.00
9325;BME280;4701;51.566;6.776;2024-01-06T17:10:23;-18095.75;;;1.97;100.00
9325;BME280;4701;51.566;6.776;2024-01-06T17:15:25;-18096.06;;;1.98;100.00
9325;BME280;4701;51.566;6.776;2024-01-06T17:20:34;-18095.75;;;1.97;100.00
9325;BME280;4701;51.566;6.776;2024-01-06T17:25:40;-18095.31;;;1.95;100.00
9325;BME280;4701;51.566;6.776;2024-01-06T17:30:41;-18095.31;;;1.95;100.00
9325;BME280;4701;51.566;6.776;2024-01-06T17:35:43;-18095.47;;;1.96;100.00
9325;BME280;4701;51.566;6.776;2024-01-06T17:40:47;-18095.75;;;1.97;100.00
9325;BME280;4701;51.566;6.776;2024-01-06T17:45:48;-18096.22;;;1.98;100.00
9325;BME280;4701;51.566;6.776;2024-01-06T17:50:50;-18096.06;;;1.98;100.00
9325;BME280;4701;51.566;6.776;2024-01-06T17:55:53;-18095.75;;;1.97;100.00
9325;BME280;4701;51.566;6.776;2024-01-06T18:00:54;-18095.47;;;1.96;100.00
9325;BME280;4701;51.566;6.776;2024-01-06T18:05:56;-18095.59;;;1.96;100.00
9325;BME280;4701;51.566;6.776;2024-01-06T18:10:59;-18095.31;;;1.95;100.00
9325;BME280;4701;51.566;6.776;2024-01-06T18:16:01;-18094.53;;;1.93;100.00
9325;BME280;4701;51.566;6.776;2024-01-06T18:21:02;-18093.31;;;1.88;100.00
9325;BME280;4701;51.566;6.776;2024-01-06T18:26:05;-18093.63;;;1.89;100.00
9325;BME280;4701;51.566;6.776;2024-01-06T18:31:07;-18093.31;;;1.88;100.00
9325;BME280;4701;51.566;6.776;2024-01-06T18:36:09;-18093.16;;;1.88;100.00
9325;BME280;4701;51.566;6.776;2024-01-06T18:41:12;-18093.47;;;1.89;100.00
9325;BME280;4701;51.566;6.776;2024-01-06T18:46:14;-18093.63;;;1.89;100.00
9325;BME280;4701;51.566;6.776;2024-01-06T18:51:16;-18093.63;;;1.89;100.00
9325;BME280;4701;51.566;6.776;2024-01-06T18:56:26;-18093.63;;;1.89;100.00
9325;BME280;4701;51.566;6.776;2024-01-06T19:01:37;-18093.16;;;1.88;100.00
9325;BME280;4701;51.566;6.776;2024-01-06T19:06:41;-18092.88;;;1.87;100.00
9325;BME280;4701;51.566;6.776;2024-01-06T19:11:47;-18093.31;;;1.88;100.00
9325;BME280;4701;51.566;6.776;2024-01-06T19:16:50;-18092.72;;;1.86;100.00
9325;BME280;4701;51.566;6.776;2024-01-06T19:21:53;-18093.16;;;1.88;100.00
9325;BME280;4701;51.566;6.776;2024-01-06T19:26:59;-18093.31;;;1.88;100.00
9325;BME280;4701;51.566;6.776;2024-01-06T19:32:01;-18093.63;;;1.89;100.00
9325;BME280;4701;51.566;6.776;2024-01-06T19:37:03;-18094.22;;;1.92;100.00
9325;BME280;4701;51.566;6.776;2024-01-06T19:42:06;-18094.09;;;1.91;100.00
9325;BME280;4701;51.566;6.776;2024-01-06T19:47:08;-18093.16;;;1.88;100.00
9325;BME280;4701;51.566;6.776;2024-01-06T19:52:10;-18093.00;;;1.87;100.00
9325;BME280;4701;51.566;6.776;2024-01-06T19:57:13;-18092.72;;;1.86;100.00
9325;BME280;4701;51.566;6.776;2024-01-06T20:02:19;-18092.56;;;1.86;100.00
9325;BME280;4701;51.566;6.776;2024-01-06T20:07:21;-18091.94;;;1.84;100.00
9325;BME280;4701;51.566;6.776;2024-01-06T20:12:30;-18093.00;;;1.87;100.00
9325;BME280;4701;51.566;6.776;2024-01-06T20:17:32;-18093.31;;;1.88;100.00
9325;BME280;4701;51.566;6.776;2024-01-06T20:22:33;-18093.47;;;1.89;100.00
9325;BME280;4701;51.566;6.776;2024-01-06T20:27:36;-18093.78;;;1.90;100.00
9325;BME280;4701;51.566;6.776;2024-01-06T20:32:41;-18094.22;;;1.92;100.00
9325;BME280;4701;51.566;6.776;2024-01-06T20:37:45;-18093.94;;;1.90;100.00
9325;BME280;4701;51.566;6.776;2024-01-06T20:42:59;-18093.63;;;1.89;100.00
9325;BME280;4701;51.566;6.776;2024-01-06T20:48:04;-18093.00;;;1.87;100.00
9325;BME280;4701;51.566;6.776;2024-01-06T20:53:21;-18093.16;;;1.88;100.00
9325;BME280;4701;51.566;6.776;2024-01-06T20:58:29;-18093.47;;;1.89;100.00
9325;BME280;4701;51.566;6.776;2024-01-06T21:03:38;-18093.31;;;1.88;100.00
9325;BME280;4701;51.566;6.776;2024-01-06T21:08:56;-18093.78;;;1.90;100.00
9325;BME280;4701;51.566;6.776;2024-01-06T21:14:08;-18094.22;;;1.92;100.00
9325;BME280;4701;51.566;6.776;2024-01-06T21:19:13;-18094.69;;;1.93;100.00
9325;BME280;4701;51.566;6.776;2024-01-06T21:24:21;-18094.53;;;1.93;100.00
